Time;durP1;ratioP1;P1;durP2;ratioP2;P2;SDS_P1;SDS_P2;PMS_P1;PMS_P2;Temp;Humidity;BMP_temperature;BMP_pressure;BME280_temperature;BME280_humidity;BME280_pressure;Samples;Min_cycle;Max_cycle;Signal;HPM_P1;HPM_P2
2022/03/06 00:00:09;;;;;;;39.35;21.52;;;;;;;0.20;83.16;102131.91;5239450;28;20056;-67
2022/03/06 00:02:41;;;;;;;40.95;21.48;;;;;;;0.14;82.79;102140.72;5249793;28;20032;-67
2022/03/06 00:05:13;;;;;;;44.97;23.50;;;;;;;0.08;83.91;102137.31;5249409;28;20456;-67
2022/03/06 00:07:45;;;;;;;41.63;21.10;;;;;;;0.05;82.90;102137.34;5244988;28;20021;-67
2022/03/06 00:10:16;;;;;;;41.47;22.77;;;;;;;0.03;82.30;102147.84;5245185;28;20509;-67
2022/03/06 00:12:48;;;;;;;39.25;21.15;;;;;;;0.00;82.23;102147.91;5245897;28;20079;-67
2022/03/06 00:15:21;;;;;;;42.03;20.92;;;;;;;0.01;82.49;102148.78;5253949;28;20087;-67
2022/03/06 00:17:54;;;;;;;44.70;22.83;;;;;;;-0.03;82.63;102143.53;5248727;28;20124;-67
2022/03/06 00:20:25;;;;;;;39.67;21.08;;;;;;;-0.07;83.28;102149.72;5240109;28;20043;-67
2022/03/06 00:22:56;;;;;;;40.13;22.40;;;;;;;-0.06;83.48;102147.97;5245088;28;20033;-67
2022/03/06 00:25:28;;;;;;;42.97;22.08;;;;;;;-0.11;82.58;102149.78;5240782;28;20411;-67
2022/03/06 00:27:59;;;;;;;41.05;21.55;;;;;;;-0.15;82.70;102151.56;5233260;28;20508;-67
2022/03/06 00:30:30;;;;;;;42.17;21.95;;;;;;;-0.21;82.71;102149.88;5238153;28;20025;-66
2022/03/06 00:33:04;;;;;;;42.72;22.08;;;;;;;-0.23;83.14;102146.41;5239417;28;20032;-67
2022/03/06 00:35:35;;;;;;;42.67;21.95;;;;;;;-0.23;83.37;102143.78;5244543;28;20039;-67
2022/03/06 00:38:07;;;;;;;35.53;20.15;;;;;;;-0.28;83.42;102150.81;5247124;28;20036;-66
2022/03/06 00:40:41;;;;;;;41.83;21.45;;;;;;;-0.33;83.30;102157.84;5240059;28;20513;-67
2022/03/06 00:43:12;;;;;;;;;;;;;;;-0.30;82.21;102160.47;5251538;28;20036;-66
2022/03/06 00:45:44;;;;;;;44.17;21.27;;;;;;;-0.33;83.62;102160.47;5251709;28;20290;-67
2022/03/06 00:48:15;;;;;;;39.72;20.52;;;;;;;-0.34;83.27;102169.25;5248944;28;20484;-67
2022/03/06 00:50:47;;;;;;;39.70;21.17;;;;;;;-0.33;83.49;102176.22;5247031;28;20107;-67
2022/03/06 00:53:18;;;;;;;43.63;21.90;;;;;;;-0.31;83.15;102179.69;5251704;28;20085;-67
2022/03/06 00:55:50;;;;;;;43.17;21.58;;;;;;;-0.30;82.94;102175.34;5248760;28;20082;-67
2022/03/06 00:58:21;;;;;;;39.65;20.55;;;;;;;-0.28;82.70;102174.41;5257229;28;20028;-67
2022/03/06 01:00:52;;;;;;;41.20;21.00;;;;;;;-0.24;82.57;102175.25;5256464;28;20054;-67
2022/03/06 01:03:24;;;;;;;39.47;20.65;;;;;;;-0.24;82.52;102175.25;5254154;28;20395;-67
2022/03/06 01:05:55;;;;;;;39.42;20.20;;;;;;;-0.24;82.48;102183.13;5252443;28;20493;-67
2022/03/06 01:08:27;;;;;;;42.25;21.67;;;;;;;-0.22;82.33;102181.34;5256535;28;20061;-67
2022/03/06 01:10:58;;;;;;;38.53;20.60;;;;;;;-0.27;82.50;102183.16;5251652;28;20110;-67
2022/03/06 01:13:29;;;;;;;41.17;21.33;;;;;;;-0.29;82.61;102179.66;5249796;28;20033;-67
2022/03/06 01:16:00;;;;;;;41.70;20.83;;;;;;;-0.28;82.40;102178.81;5256242;28;20045;-67
2022/03/06 01:18:32;;;;;;;39.75;20.42;;;;;;;-0.27;82.32;102183.16;5258687;28;20061;-67
2022/03/06 01:21:04;;;;;;;40.67;21.30;;;;;;;-0.33;82.80;102189.31;5255551;28;20033;-67
2022/03/06 01:23:35;;;;;;;40.80;21.95;;;;;;;-0.36;83.04;102193.75;5241255;28;20068;-66
2022/03/06 01:26:06;;;;;;;42.33;22.20;;;;;;;-0.39;83.38;102189.38;5246674;28;20064;-67
2022/03/06 01:28:38;;;;;;;39.85;20.20;;;;;;;-0.46;83.28;102188.59;5241260;28;20041;-67
2022/03/06 01:31:09;;;;;;;39.17;21.00;;;;;;;-0.52;83.56;102190.38;5241398;28;20028;-67
2022/03/06 01:33:40;;;;;;;43.10;22.20;;;;;;;-0.53;83.24;102191.28;5238320;28;20025;-67
2022/03/06 01:36:11;;;;;;;43.85;21.92;;;;;;;-0.58;83.85;102198.28;5248204;28;20036;-66
2022/03/06 01:38:43;;;;;;;40.45;20.95;;;;;;;-0.61;83.78;102200.06;5239095;28;20039;-67
2022/03/06 01:41:14;;;;;;;41.75;21.88;;;;;;;-0.67;83.85;102196.59;5248125;28;20048;-67
2022/03/06 01:43:45;;;;;;;41.22;22.58;;;;;;;-0.67;84.09;102201.84;5238624;28;20467;-67
2022/03/06 01:46:17;;;;;;;40.13;21.70;;;;;;;-0.68;83.85;102206.22;5241867;28;20483;-67
2022/03/06 01:48:48;;;;;;;43.10;22.25;;;;;;;-0.68;84.26;102200.13;5240252;28;21183;-67
2022/03/06 01:51:19;;;;;;;42.47;21.42;;;;;;;-0.79;84.50;102192.34;5239216;28;20468;-67
2022/03/06 01:53:51;;;;;;;41.22;20.92;;;;;;;-0.75;84.23;102198.44;5234875;28;20044;-66
2022/03/06 01:56:22;;;;;;;39.80;20.20;;;;;;;-0.82;84.84;102205.47;5241595;28;20360;-67
2022/03/06 01:58:55;;;;;;;42.92;21.73;;;;;;;-0.83;85.02;102199.34;5248244;28;20021;-67
2022/03/06 02:01:26;;;;;;;41.20;21.35;;;;;;;-0.85;85.06;102205.50;5247860;28;20025;-67
2022/03/06 02:03:58;;;;;;;41.80;22.13;;;;;;;-0.87;85.54;102207.25;5242976;28;20497;-67
2022/03/06 02:06:29;;;;;;;38.78;20.52;;;;;;;-0.89;85.36;102204.63;5235915;28;20059;-67
2022/03/06 02:09:00;;;;;;;40.75;21.50;;;;;;;-0.89;85.67;102206.41;5245841;28;20360;-67
2022/03/06 02:11:32;;;;;;;42.58;21.08;;;;;;;-0.96;85.88;102195.06;5236741;28;20052;-67
2022/03/06 02:14:03;;;;;;;40.25;20.67;;;;;;;-0.95;85.91;102206.44;5238582;28;20043;-67
2022/03/06 02:16:35;;;;;;;40.63;21.02;;;;;;;-1.00;85.79;102211.69;5236568;28;20429;-67
2022/03/06 02:19:06;;;;;;;43.63;22.27;;;;;;;-0.99;85.80;102210.81;5249026;28;20488;-67
2022/03/06 02:21:37;;;;;;;40.05;20.55;;;;;;;-1.03;86.43;102204.72;5238898;28;20032;-67
2022/03/06 02:24:09;;;;;;;39.17;20.42;;;;;;;-1.02;86.79;102209.09;5241199;28;20040;-67
2022/03/06 02:26:40;;;;;;;40.47;21.85;;;;;;;-1.05;86.75;102203.00;5244957;28;20032;-67
2022/03/06 02:29:11;;;;;;;40.08;21.25;;;;;;;-1.06;86.68;102212.59;5238722;28;20036;-67
2022/03/06 02:31:42;;;;;;;39.10;21.48;;;;;;;-1.10;86.49;102208.25;5253193;28;20040;-67
2022/03/06 02:34:14;;;;;;;38.63;20.95;;;;;;;-1.11;86.87;102209.16;5246670;28;20029;-67
2022/03/06 02:36:45;;;;;;;39.03;20.77;;;;;;;-1.16;86.53;102212.69;5248041;28;20043;-67
2022/03/06 02:39:16;;;;;;;40.05;20.75;;;;;;;-1.18;87.06;102212.69;5247248;28;20529;-67
2022/03/06 02:41:47;;;;;;;39.08;20.55;;;;;;;-1.18;86.95;102217.91;5248460;28;20167;-67
2022/03/06 02:44:19;;;;;;;42.53;21.35;;;;;;;-1.23;87.14;102223.19;5255229;28;20029;-67
2022/03/06 02:46:51;;;;;;;41.67;21.08;;;;;;;-1.24;87.51;102226.69;5237737;28;20024;-67
2022/03/06 02:49:23;;;;;;;37.53;20.15;;;;;;;-1.23;87.93;102222.31;5238447;28;20067;-67
2022/03/06 02:51:54;;;;;;;39.67;20.63;;;;;;;-1.23;87.75;102223.19;5248855;28;20037;-67
2022/03/06 02:54:25;;;;;;;39.30;20.67;;;;;;;-1.24;88.00;102220.56;5234051;28;20055;-67
2022/03/06 02:56:57;;;;;;;39.88;21.00;;;;;;;-1.22;88.75;102218.81;5233619;28;20122;-67
2022/03/06 02:59:28;;;;;;;41.90;20.65;;;;;;;-1.27;88.33;102226.69;5242703;28;20572;-67
2022/03/06 03:01:59;;;;;;;39.97;21.02;;;;;;;-1.25;88.70;102230.16;5236895;28;20037;-67
2022/03/06 03:04:37;;;;;;;38.45;20.00;;;;;;;-1.29;89.07;102217.97;5236525;28;20091;-67
2022/03/06 03:07:08;;;;;;;37.50;19.92;;;;;;;-1.29;88.60;102225.81;5237715;28;20021;-67
2022/03/06 03:09:40;;;;;;;38.28;20.05;;;;;;;-1.30;89.00;102220.63;5239163;28;20559;-67
2022/03/06 03:12:11;;;;;;;40.73;20.60;;;;;;;-1.30;89.04;102231.94;5232864;28;20033;-67
2022/03/06 03:14:42;;;;;;;37.83;19.55;;;;;;;-1.31;89.77;102235.44;5246746;28;20052;-67
2022/03/06 03:17:14;;;;;;;37.08;18.88;;;;;;;-1.33;89.50;102233.72;5234015;28;20064;-67
2022/03/06 03:19:45;;;;;;;39.78;19.50;;;;;;;-1.34;89.72;102231.97;5243584;28;20029;-67
2022/03/06 03:22:16;;;;;;;37.83;20.00;;;;;;;-1.39;89.70;102243.31;5242912;28;20037;-67
2022/03/06 03:24:47;;;;;;;42.40;19.80;;;;;;;-1.42;89.79;102237.22;5243122;28;20032;-67
2022/03/06 03:27:19;;;;;;;36.47;19.30;;;;;;;-1.44;90.01;102228.50;5234228;28;20036;-67
2022/03/06 03:29:50;;;;;;;42.55;20.42;;;;;;;-1.46;90.07;102235.50;5242099;28;20036;-67
2022/03/06 03:32:21;;;;;;;39.88;20.63;;;;;;;-1.47;90.89;102233.78;5236081;28;20037;-67
2022/03/06 03:34:53;;;;;;;40.15;19.92;;;;;;;-1.52;91.16;102227.69;5239090;28;20029;-67
2022/03/06 03:37:24;;;;;;;40.72;20.50;;;;;;;-1.53;91.10;102231.16;5234683;28;21247;-68
2022/03/06 03:39:55;;;;;;;37.50;20.67;;;;;;;-1.57;91.32;102230.34;5234018;28;20041;-67
2022/03/06 03:42:27;;;;;;;42.27;20.40;;;;;;;-1.61;90.84;102228.56;5235328;28;20033;-67
2022/03/06 03:44:58;;;;;;;37.47;19.17;;;;;;;-1.65;91.30;102234.69;5236232;28;20041;-67
2022/03/06 03:47:29;;;;;;;39.58;19.42;;;;;;;-1.64;91.80;102234.69;5237836;28;20388;-67
2022/03/06 03:50:00;;;;;;;36.63;19.77;;;;;;;-1.69;91.90;102233.84;5239985;28;20048;-67
2022/03/06 03:52:32;;;;;;;41.65;21.92;;;;;;;-1.70;92.26;102234.72;5239645;28;20739;-67
2022/03/06 03:55:03;;;;;;;38.07;19.87;;;;;;;-1.74;92.48;102232.13;5236856;28;20033;-67
2022/03/06 03:57:35;;;;;;;40.33;21.65;;;;;;;-1.79;92.09;102240.84;5246754;28;20064;-67
2022/03/06 04:00:07;;;;;;;40.07;20.60;;;;;;;-1.80;92.62;102246.09;5244383;28;20033;-67
2022/03/06 04:02:39;;;;;;;39.20;20.63;;;;;;;-1.83;92.70;102239.13;5249064;28;20491;-67
2022/03/06 04:05:10;;;;;;;37.35;20.75;;;;;;;-1.84;93.22;102246.97;5245885;28;20087;-67
2022/03/06 04:07:41;;;;;;;36.97;20.33;;;;;;;-1.87;93.07;102246.97;5238125;28;20040;-67
2022/03/06 04:10:13;;;;;;;37.50;20.17;;;;;;;-1.91;93.42;102246.13;5237603;28;20131;-67
2022/03/06 04:12:44;;;;;;;38.03;20.27;;;;;;;-1.92;93.47;102256.56;5239025;28;20540;-67
2022/03/06 04:15:15;;;;;;;38.37;20.70;;;;;;;-1.95;93.90;102249.63;5237912;28;21190;-67
2022/03/06 04:17:47;;;;;;;40.25;19.50;;;;;;;-1.97;93.60;102259.22;5238137;28;20516;-67
2022/03/06 04:20:18;;;;;;;41.00;20.60;;;;;;;-1.99;93.75;102260.97;5245644;28;20060;-67
2022/03/06 04:22:50;;;;;;;35.53;19.58;;;;;;;-1.98;94.11;102265.31;5240480;28;20475;-67
2022/03/06 04:25:21;;;;;;;39.88;20.15;;;;;;;-2.02;94.07;102272.28;5239144;28;20052;-67
2022/03/06 04:27:52;;;;;;;39.35;19.85;;;;;;;-2.03;93.56;102264.47;5238858;28;20524;-67
2022/03/06 04:30:25;;;;;;;39.70;20.42;;;;;;;-2.05;94.36;102277.53;5238884;28;20032;-67
2022/03/06 04:32:56;;;;;;;37.17;19.67;;;;;;;-2.07;94.23;102274.03;5245753;28;20036;-67
2022/03/06 04:35:27;;;;;;;37.05;20.20;;;;;;;-2.10;94.42;102278.41;5240618;28;20491;-67
2022/03/06 04:37:59;;;;;;;39.55;20.05;;;;;;;-2.10;94.30;102275.78;5238058;28;20087;-67
2022/03/06 04:40:30;;;;;;;40.17;20.57;;;;;;;-2.12;94.86;102281.00;5238719;28;20129;-67
2022/03/06 04:43:01;;;;;;;37.30;19.83;;;;;;;-2.13;94.20;102279.25;5243051;28;20056;-67
2022/03/06 04:45:33;;;;;;;38.47;19.73;;;;;;;-2.12;94.64;102288.00;5236924;28;20502;-67
2022/03/06 04:48:04;;;;;;;37.43;20.33;;;;;;;-2.17;94.68;102288.88;5243334;28;20029;-67
2022/03/06 04:50:35;;;;;;;35.40;18.43;;;;;;;-2.19;94.77;102292.34;5237499;28;20039;-67
2022/03/06 04:53:07;;;;;;;37.73;19.67;;;;;;;-2.20;94.78;102291.47;5253234;28;20029;-67
2022/03/06 04:55:38;;;;;;;37.38;20.50;;;;;;;-2.21;94.65;102286.25;5237008;28;20067;-67
2022/03/06 04:58:09;;;;;;;39.30;21.00;;;;;;;-2.23;95.14;102293.22;5248891;28;20033;-67
2022/03/06 05:00:40;;;;;;;36.83;20.17;;;;;;;-2.26;94.79;102298.44;5249930;28;20040;-67
2022/03/06 05:03:12;;;;;;;35.77;19.57;;;;;;;-2.24;94.77;102313.25;5240764;28;20029;-67
2022/03/06 05:05:43;;;;;;;37.10;20.17;;;;;;;-2.26;94.83;102314.13;5242549;28;20035;-67
2022/03/06 05:08:15;;;;;;;39.53;22.37;;;;;;;-2.26;95.67;102311.50;5241714;28;20555;-67
2022/03/06 05:10:46;;;;;;;36.65;21.33;;;;;;;-2.27;95.56;102309.78;5246588;28;20481;-67
2022/03/06 05:13:17;;;;;;;43.07;22.13;;;;;;;-2.29;96.08;102315.00;5239656;28;20040;-67
2022/03/06 05:15:48;;;;;;;38.23;19.93;;;;;;;-2.33;95.50;102315.88;5236932;28;20434;-67
2022/03/06 05:18:20;;;;;;;37.37;20.40;;;;;;;-2.33;95.25;102315.88;5240907;28;20399;-67
2022/03/06 05:20:51;;;;;;;35.88;20.55;;;;;;;-2.37;95.34;102316.75;5250942;28;20442;-67
2022/03/06 05:23:22;;;;;;;37.03;19.33;;;;;;;-2.38;95.15;102315.88;5240752;28;20047;-67
2022/03/06 05:25:54;;;;;;;36.67;21.07;;;;;;;-2.37;95.48;102321.97;5255300;28;20025;-67
2022/03/06 05:28:27;;;;;;;31.80;19.50;;;;;;;-2.38;95.49;102326.34;5239088;28;20101;-67
2022/03/06 05:30:58;;;;;;;35.08;19.67;;;;;;;-2.41;95.39;102323.69;5239294;28;20054;-67
2022/03/06 05:33:29;;;;;;;34.97;19.87;;;;;;;-2.40;95.40;102325.47;5237230;28;20063;-67
2022/03/06 05:36:01;;;;;;;35.07;20.10;;;;;;;-2.41;96.26;102325.44;5240922;28;20035;-67
2022/03/06 05:38:32;;;;;;;37.73;21.07;;;;;;;-2.43;95.83;102324.59;5244422;28;20408;-67
2022/03/06 05:41:04;;;;;;;34.47;19.50;;;;;;;-2.45;95.89;102334.16;5248849;28;20101;-67
2022/03/06 05:43:35;;;;;;;32.23;19.87;;;;;;;-2.46;96.17;102335.88;5239342;28;20037;-67
2022/03/06 05:46:06;;;;;;;36.42;20.17;;;;;;;-2.49;95.81;102332.38;5238919;28;20144;-67
2022/03/06 05:48:37;;;;;;;39.27;20.93;;;;;;;-2.49;95.78;102335.91;5236703;28;20499;-67
2022/03/06 05:51:09;;;;;;;35.63;20.27;;;;;;;-2.51;96.14;102344.56;5245200;28;20029;-67
2022/03/06 05:53:40;;;;;;;39.03;21.13;;;;;;;-2.54;95.74;102342.84;5237689;28;20025;-67
2022/03/06 05:56:12;;;;;;;34.63;19.73;;;;;;;-2.57;96.41;102346.34;5240827;28;20044;-67
2022/03/06 05:58:43;;;;;;;37.60;20.47;;;;;;;-2.56;96.44;102350.69;5238849;28;20029;-67
2022/03/06 06:01:16;;;;;;;37.00;21.67;;;;;;;-2.58;96.75;102341.09;5244842;28;20055;-67
2022/03/06 06:03:48;;;;;;;37.77;21.23;;;;;;;-2.56;96.38;102348.06;5247009;28;20471;-67
2022/03/06 06:06:19;;;;;;;38.23;20.73;;;;;;;-2.53;96.47;102351.53;5242056;28;20056;-67
2022/03/06 06:08:50;;;;;;;37.30;21.23;;;;;;;-2.56;96.33;102350.69;5242080;28;20317;-67
2022/03/06 06:11:22;;;;;;;37.97;20.77;;;;;;;-2.57;96.24;102361.13;5241292;28;20037;-67
2022/03/06 06:13:53;;;;;;;35.80;20.53;;;;;;;-2.57;96.27;102362.00;5236778;28;20056;-67
2022/03/06 06:16:24;;;;;;;35.63;20.90;;;;;;;-2.57;96.60;102361.13;5240558;28;20053;-67
2022/03/06 06:18:56;;;;;;;36.07;20.13;;;;;;;-2.57;96.54;102374.19;5251243;28;20391;-68
2022/03/06 06:21:27;;;;;;;36.47;20.93;;;;;;;-2.60;96.61;102369.81;5245606;28;20075;-67
2022/03/06 06:23:58;;;;;;;36.37;21.23;;;;;;;-2.59;96.62;102375.91;5243702;28;20546;-67
2022/03/06 06:26:29;;;;;;;34.27;20.60;;;;;;;-2.62;96.44;102382.03;5246184;28;20522;-67
2022/03/06 06:29:01;;;;;;;34.73;20.53;;;;;;;-2.59;97.03;102378.53;5235929;28;20135;-67
2022/03/06 06:31:32;;;;;;;33.20;20.40;;;;;;;-2.60;96.39;102376.81;5236246;28;20040;-67
2022/03/06 06:34:03;;;;;;;37.13;21.17;;;;;;;-2.62;96.46;102379.41;5232461;28;20090;-67
2022/03/06 06:36:35;;;;;;;33.80;20.23;;;;;;;-2.59;96.55;102384.66;5243833;28;20040;-67
2022/03/06 06:39:09;;;;;;;34.08;19.98;;;;;;;-2.62;96.21;102384.63;5242093;28;20136;-67
2022/03/06 06:41:41;;;;;;;34.50;19.52;;;;;;;-2.61;96.22;102389.00;5244374;28;20561;-67
2022/03/06 06:44:13;;;;;;;36.03;20.70;;;;;;;-2.61;96.09;102383.78;5246628;28;20098;-67
2022/03/06 06:46:44;;;;;;;36.33;20.57;;;;;;;-2.58;96.37;102395.97;5243210;28;20029;-67
2022/03/06 06:49:15;;;;;;;35.67;20.00;;;;;;;-2.57;96.24;102390.75;5246007;28;20033;-67
2022/03/06 06:51:46;;;;;;;32.93;19.03;;;;;;;-2.52;96.29;102403.81;5245008;28;20031;-67
2022/03/06 06:54:18;;;;;;;39.33;21.87;;;;;;;-2.51;96.49;102404.69;5241409;28;20053;-67
2022/03/06 06:56:49;;;;;;;36.63;21.60;;;;;;;-2.50;95.97;102404.69;5243245;28;20032;-67
2022/03/06 06:59:20;;;;;;;34.13;20.00;;;;;;;-2.50;96.08;102407.31;5245148;28;20033;-67
2022/03/06 07:01:52;;;;;;;34.23;20.23;;;;;;;-2.50;96.44;102406.44;5243615;28;20090;-67
2022/03/06 07:04:23;;;;;;;37.23;21.33;;;;;;;-2.47;95.98;102411.69;5245089;28;20036;-67
2022/03/06 07:06:54;;;;;;;36.50;21.20;;;;;;;-2.46;96.23;102416.91;5244870;28;20487;-67
2022/03/06 07:09:25;;;;;;;38.53;20.83;;;;;;;-2.44;96.24;102417.78;5243811;28;20422;-67
2022/03/06 07:11:57;;;;;;;37.10;21.10;;;;;;;-2.42;96.18;102420.41;5244349;28;20564;-67
2022/03/06 07:14:28;;;;;;;36.37;20.57;;;;;;;-2.38;96.14;102416.91;5240431;28;20033;-67
2022/03/06 07:16:59;;;;;;;34.53;19.80;;;;;;;-2.34;96.15;102421.28;5245768;28;20028;-67
2022/03/06 07:19:30;;;;;;;35.97;20.57;;;;;;;-2.30;96.03;102422.16;5242570;28;20028;-67
2022/03/06 07:22:02;;;;;;;36.08;20.15;;;;;;;-2.29;95.67;102423.91;5241625;28;20044;-67
2022/03/06 07:24:33;;;;;;;34.67;21.00;;;;;;;-2.27;95.57;102423.03;5244774;28;20044;-68
2022/03/06 07:27:04;;;;;;;35.10;20.00;;;;;;;-2.22;95.98;102421.31;5244484;28;20049;-68
2022/03/06 07:29:36;;;;;;;36.60;21.17;;;;;;;-2.24;95.34;102420.44;5241330;28;20033;-67
2022/03/06 07:32:07;;;;;;;38.72;21.90;;;;;;;-2.15;95.76;102427.44;5244933;28;20032;-67
2022/03/06 07:34:39;;;;;;;35.57;20.77;;;;;;;-2.12;95.50;102437.03;5239533;28;20147;-67
2022/03/06 07:37:10;;;;;;;32.85;21.08;;;;;;;-2.05;95.61;102434.44;5243109;28;20471;-67
2022/03/06 07:39:42;;;;;;;33.67;20.80;;;;;;;-1.99;95.14;102438.81;5241833;28;20544;-67
2022/03/06 07:42:13;;;;;;;35.15;20.83;;;;;;;-1.95;95.13;102444.91;5245080;28;20528;-68
2022/03/06 07:44:44;;;;;;;36.78;20.83;;;;;;;-1.94;94.86;102451.88;5244618;28;20081;-67
2022/03/06 07:47:15;;;;;;;35.05;20.73;;;;;;;-1.88;94.58;102451.88;5244724;28;20321;-68
2022/03/06 07:49:47;;;;;;;34.55;21.50;;;;;;;-1.82;94.70;102462.38;5241242;28;20094;-67
2022/03/06 07:52:18;;;;;;;34.70;21.37;;;;;;;-1.76;94.30;102454.53;5243948;28;20044;-68
2022/03/06 07:54:49;;;;;;;32.40;21.00;;;;;;;-1.63;93.55;102461.50;5250252;28;20591;-68
2022/03/06 07:57:21;;;;;;;30.67;18.47;;;;;;;-1.60;93.51;102463.25;5243521;28;20099;-68
2022/03/06 07:59:52;;;;;;;32.77;19.17;;;;;;;-1.52;93.37;102465.84;5246375;28;20393;-67
2022/03/06 08:02:23;;;;;;;32.03;19.67;;;;;;;-1.43;93.23;102473.72;5244680;28;20413;-67
2022/03/06 08:04:55;;;;;;;32.10;19.92;;;;;;;-1.40;93.13;102474.59;5250853;28;20479;-68
2022/03/06 08:07:26;;;;;;;32.47;20.33;;;;;;;-1.32;92.26;102482.44;5252845;28;20048;-67
2022/03/06 08:09:57;;;;;;;32.55;19.77;;;;;;;-1.29;92.07;102474.56;5243804;28;20025;-67
2022/03/06 08:12:28;;;;;;;34.25;19.30;;;;;;;-1.24;91.61;102482.44;5248296;28;20067;-68
2022/03/06 08:15:00;;;;;;;32.67;19.73;;;;;;;-1.17;92.11;102484.16;5249387;28;20407;-67
2022/03/06 08:17:31;;;;;;;29.58;19.13;;;;;;;-1.12;92.67;102481.53;5248312;28;20032;-67
2022/03/06 08:20:04;;;;;;;31.90;20.05;;;;;;;-1.08;92.23;102489.38;5245261;28;20103;-68
2022/03/06 08:22:35;;;;;;;31.02;18.75;;;;;;;-1.03;91.79;102492.88;5244306;28;20059;-68
2022/03/06 08:25:07;;;;;;;31.45;19.40;;;;;;;-0.99;91.31;102494.59;5240688;28;20119;-68
2022/03/06 08:27:39;;;;;;;28.20;18.70;;;;;;;-0.91;91.50;102498.97;5243747;28;20060;-68
2022/03/06 08:30:10;;;;;;;32.00;19.45;;;;;;;-0.84;91.43;102500.72;5245180;28;20134;-67
2022/03/06 08:32:41;;;;;;;30.15;19.10;;;;;;;-0.76;90.66;102496.31;5241539;28;20079;-68
2022/03/06 08:35:13;;;;;;;31.10;18.45;;;;;;;-0.69;90.59;102498.06;5245521;28;20045;-67
2022/03/06 08:37:44;;;;;;;30.48;18.77;;;;;;;-0.65;90.76;102497.16;5247809;28;20032;-67
2022/03/06 08:40:16;;;;;;;28.65;18.02;;;;;;;-0.62;90.89;102505.00;5243136;28;20434;-67
2022/03/06 08:42:47;;;;;;;29.10;17.88;;;;;;;-0.52;89.90;102504.97;5246952;28;20032;-67
2022/03/06 08:45:18;;;;;;;30.50;18.88;;;;;;;-0.34;89.39;102515.41;5248909;28;20036;-67
2022/03/06 08:47:50;;;;;;;30.10;18.15;;;;;;;-0.26;88.78;102513.59;5254992;28;20082;-67
2022/03/06 08:50:21;;;;;;;29.27;18.58;;;;;;;-0.18;88.41;102515.31;5252154;28;20036;-67
2022/03/06 08:52:52;;;;;;;27.63;18.05;;;;;;;-0.08;87.92;102512.63;5241272;28;20212;-67
2022/03/06 08:55:24;;;;;;;29.77;18.08;;;;;;;-0.02;88.24;102507.38;5242966;28;20024;-67
2022/03/06 08:57:55;;;;;;;26.98;17.17;;;;;;;0.13;87.75;102509.00;5242685;28;20021;-67
2022/03/06 09:00:26;;;;;;;26.33;17.88;;;;;;;0.17;87.39;102510.75;5241090;28;20063;-68
2022/03/06 09:02:57;;;;;;;28.20;17.40;;;;;;;0.32;86.35;102506.28;5248460;28;20402;-68
2022/03/06 09:05:29;;;;;;;28.80;17.38;;;;;;;0.39;86.18;102508.00;5244293;28;20540;-68
2022/03/06 09:08:00;;;;;;;24.38;16.40;;;;;;;0.41;85.30;102505.34;5248122;28;20021;-68
2022/03/06 09:10:31;;;;;;;26.48;17.35;;;;;;;0.46;85.66;102509.69;5250137;28;20033;-68
2022/03/06 09:13:04;;;;;;;28.83;17.60;;;;;;;0.65;85.88;102517.41;5256500;28;20074;-68
2022/03/06 09:15:36;;;;;;;25.85;17.52;;;;;;;0.71;84.27;102515.63;5253337;28;20041;-68
2022/03/06 09:18:07;;;;;;;26.35;18.40;;;;;;;0.85;84.14;102526.00;5254239;28;20029;-68
2022/03/06 09:20:39;;;;;;;24.90;16.70;;;;;;;0.86;83.14;102513.72;5257310;28;20446;-68
2022/03/06 09:23:10;;;;;;;25.65;17.27;;;;;;;0.94;83.39;102515.41;5254007;28;20054;-68
2022/03/06 09:25:41;;;;;;;25.85;17.10;;;;;;;1.03;82.43;102513.56;5254298;28;20075;-68
2022/03/06 09:28:13;;;;;;;26.38;16.10;;;;;;;1.11;81.44;102511.72;5253858;28;20024;-68
2022/03/06 09:30:44;;;;;;;25.95;17.25;;;;;;;1.21;80.67;102523.00;5254521;28;20021;-68
2022/03/06 09:33:16;;;;;;;25.52;16.40;;;;;;;1.26;81.04;102516.81;5257300;28;20466;-68
2022/03/06 09:35:47;;;;;;;23.80;16.73;;;;;;;1.33;81.11;102515.03;5253133;28;20455;-68
2022/03/06 09:38:18;;;;;;;24.55;16.23;;;;;;;1.34;80.41;102517.63;5249833;28;20068;-68
2022/03/06 09:40:53;;;;;;;24.95;16.13;;;;;;;1.39;80.32;102512.31;5253457;28;20029;-68
2022/03/06 09:43:25;;;;;;;25.05;16.13;;;;;;;1.47;79.94;102509.59;5252794;28;20486;-68
2022/03/06 09:46:07;;;;;;;21.58;15.43;;;;;;;1.52;79.49;102510.41;5252365;28;20029;-68
2022/03/06 09:48:38;;;;;;;23.30;16.42;;;;;;;1.64;79.77;102504.13;5256140;28;20047;-68
2022/03/06 09:51:09;;;;;;;23.60;16.38;;;;;;;1.70;78.81;102515.44;5254831;28;20029;-68
2022/03/06 09:53:41;;;;;;;23.38;15.70;;;;;;;1.82;78.33;102503.88;5250799;28;20052;-68
2022/03/06 09:56:13;;;;;;;22.77;15.88;;;;;;;1.93;78.87;102507.25;5253250;28;20029;-68
2022/03/06 09:58:44;;;;;;;23.80;16.40;;;;;;;1.99;78.09;102506.28;5255955;28;20052;-68
2022/03/06 10:01:15;;;;;;;24.42;16.40;;;;;;;2.00;78.66;102499.28;5250295;28;20527;-68
2022/03/06 10:03:46;;;;;;;24.08;15.85;;;;;;;2.07;78.07;102511.44;5241892;28;20060;-68
2022/03/06 10:06:18;;;;;;;23.13;15.77;;;;;;;2.12;77.81;102510.50;5240525;28;20502;-67
2022/03/06 10:09:04;;;;;;;23.33;15.90;;;;;;;2.25;77.23;102502.44;5241192;28;20036;-68
2022/03/06 10:11:38;;;;;;;21.83;15.80;;;;;;;2.33;77.13;102500.53;5244396;28;20025;-68
2022/03/06 10:14:09;;;;;;;23.42;15.27;;;;;;;2.41;76.50;102508.31;5251553;28;20033;-68
2022/03/06 10:16:41;;;;;;;26.10;16.05;;;;;;;2.49;76.29;102496.78;5252808;28;20048;-68
2022/03/06 10:19:12;;;;;;;25.90;16.20;;;;;;;2.62;75.42;102509.75;5254682;28;20090;-68
2022/03/06 10:21:43;;;;;;;21.85;15.63;;;;;;;2.74;75.20;102515.69;5249905;28;20386;-68
2022/03/06 10:24:15;;;;;;;20.88;14.73;;;;;;;2.73;74.24;102508.66;5252574;28;20387;-68
2022/03/06 10:26:46;;;;;;;21.42;15.45;;;;;;;2.81;73.50;102519.06;5252370;28;20029;-68
2022/03/06 10:29:19;;;;;;;21.17;14.68;;;;;;;2.87;72.64;102513.69;5255085;28;20040;-69
2022/03/06 10:31:55;;;;;;;22.63;15.48;;;;;;;2.93;73.21;102515.34;5254446;28;20029;-68
2022/03/06 10:34:38;;;;;;;22.33;15.02;;;;;;;2.97;73.35;102511.75;5248028;28;20032;-68
2022/03/06 10:37:13;;;;;;;21.25;14.25;;;;;;;3.04;72.97;102516.03;5254745;28;20029;-68
2022/03/06 10:39:46;;;;;;;20.63;14.10;;;;;;;3.07;72.62;102516.00;5252325;28;20125;-68
2022/03/06 10:42:21;;;;;;;20.05;14.30;;;;;;;3.13;72.68;102510.59;5251905;28;20090;-68
2022/03/06 10:44:52;;;;;;;18.15;13.63;;;;;;;3.21;73.06;102522.78;5252709;28;20195;-69
2022/03/06 10:47:23;;;;;;;19.52;14.48;;;;;;;3.27;71.37;102523.53;5252265;28;20025;-68
2022/03/06 10:50:04;;;;;;;19.60;13.55;;;;;;;3.29;70.75;102519.09;5248926;28;20037;-68
2022/03/06 10:52:42;;;;;;;21.05;13.95;;;;;;;3.41;71.52;102510.06;5255215;28;20036;-68
2022/03/06 10:55:13;;;;;;;18.77;12.70;;;;;;;3.41;71.11;102517.09;5252979;28;20043;-68
2022/03/06 10:57:55;;;;;;;19.23;12.77;;;;;;;3.42;69.92;102514.44;5253646;28;20033;-68
2022/03/06 11:00:27;;;;;;;17.30;12.60;;;;;;;3.53;68.41;102508.97;5247472;28;20433;-68
2022/03/06 11:03:04;;;;;;;19.10;13.20;;;;;;;3.63;68.71;102512.28;5253456;28;20491;-68
2022/03/06 11:05:39;;;;;;;17.17;12.32;;;;;;;3.60;71.22;102513.19;5251908;28;20533;-68
2022/03/06 11:08:12;;;;;;;17.27;12.50;;;;;;;3.75;68.55;102511.16;5252313;28;20017;-69
2022/03/06 11:10:44;;;;;;;17.00;12.13;;;;;;;3.76;68.34;102505.84;5248268;28;20032;-68
2022/03/06 11:13:15;;;;;;;18.60;12.43;;;;;;;3.75;67.95;102512.03;5255343;28;20029;-68
2022/03/06 11:15:47;;;;;;;17.58;12.07;;;;;;;3.84;65.15;102510.97;5253199;28;20055;-68
2022/03/06 11:18:19;;;;;;;16.80;11.98;;;;;;;3.92;66.02;102501.97;5255088;28;20037;-68
2022/03/06 11:20:52;;;;;;;16.95;11.77;;;;;;;3.93;66.18;102514.28;5250840;28;20031;-68
2022/03/06 11:23:35;;;;;;;17.88;11.85;;;;;;;4.05;65.33;102502.56;5255995;28;20144;-68
2022/03/06 11:26:09;;;;;;;15.13;11.55;;;;;;;4.08;63.95;102499.84;5252689;28;20037;-68
2022/03/06 11:28:43;;;;;;;16.42;12.10;;;;;;;4.12;65.41;102504.19;5248917;28;20056;-68
2022/03/06 11:31:14;;;;;;;16.50;11.27;;;;;;;4.15;63.94;102494.44;5256060;28;20028;-68